Time;durP1;ratioP1;P1;durP2;ratioP2;P2;SDS_P1;SDS_P2;PMS_P1;PMS_P2;Temp;Humidity;BMP_temperature;BMP_pressure;BME280_temperature;BME280_humidity;BME280_pressure;Samples;Min_cycle;Max_cycle;Signal;HPM_P1;HPM_P2
2022/06/22 00:08:46;;;;;;;3.10;1.20;;;;;;;23.54;32.91;100001.31;20821722;27;100634;-77
2022/06/22 00:18:48;;;;;;;;;;;;;;;23.50;32.61;100004.22;20808178;27;98056;-76
2022/06/22 00:29:11;;;;;;;3.72;1.70;;;;;;;23.38;33.13;100021.22;20813041;27;98632;-76
2022/06/22 00:39:41;;;;;;;1.50;1.05;;;;;;;23.24;33.49;100016.38;20815735;27;96993;-77
2022/06/22 00:49:44;;;;;;;1.98;1.40;;;;;;;23.30;33.85;100013.19;20812950;27;97705;-77
2022/06/22 00:59:52;;;;;;;1.25;1.10;;;;;;;23.22;33.81;100007.75;20816837;27;99181;-78
2022/06/22 01:10:11;;;;;;;1.30;1.20;;;;;;;23.15;34.03;100003.00;20809173;27;97683;-77
2022/06/22 01:20:21;;;;;;;3.42;1.20;;;;;;;23.11;34.04;100006.94;20813507;27;98677;-77
2022/06/22 01:30:26;;;;;;;2.28;1.30;;;;;;;23.04;34.25;100016.38;20807474;27;100583;-77
2022/06/22 01:40:49;;;;;;;2.50;1.20;;;;;;;22.95;34.68;100009.28;20801155;27;101074;-77
2022/06/22 01:51:08;;;;;;;;;;;;;;;22.90;34.99;99999.16;20813439;27;99058;-77
2022/06/22 02:01:28;;;;;;;1.30;1.20;;;;;;;22.88;35.35;100009.03;20805435;27;97560;-77
2022/06/22 02:11:33;;;;;;;1.92;1.25;;;;;;;22.80;35.56;100014.16;20799006;27;100602;-77
2022/06/22 02:21:57;;;;;;;2.97;1.40;;;;;;;22.75;35.72;100030.41;20781792;27;97273;-76
2022/06/22 02:32:00;;;;;;;2.78;1.50;;;;;;;22.70;35.88;100035.25;20812753;27;100165;-77
2022/06/22 02:52:33;;;;;;;1.50;1.40;;;;;;;22.59;35.90;100038.03;20813191;27;101691;-77
2022/06/22 03:02:34;;;;;;;3.38;1.60;;;;;;;22.56;36.07;100060.25;20812645;27;96933;-77
2022/06/22 03:12:35;;;;;;;3.20;1.52;;;;;;;22.55;36.33;100062.03;20811689;27;98340;-76
2022/06/22 03:22:39;;;;;;;1.70;1.30;;;;;;;22.51;36.90;100060.66;20813308;27;98006;-76
2022/06/22 03:32:48;;;;;;;2.53;1.65;;;;;;;22.50;37.10;100079.28;20813579;27;97571;-75
2022/06/22 03:42:55;;;;;;;2.30;1.98;;;;;;;22.48;37.59;100075.94;20799363;27;100319;-76
2022/06/22 03:53:07;;;;;;;3.95;2.33;;;;;;;22.46;38.15;100077.84;20783439;27;100472;-76
2022/06/22 04:03:08;;;;;;;5.95;2.60;;;;;;;22.48;38.11;100046.91;20805150;27;101491;-76
2022/06/22 04:13:28;;;;;;;7.22;1.90;;;;;;;22.49;38.07;100023.00;20802467;27;97704;-76
2022/06/22 04:23:50;;;;;;;3.72;1.60;;;;;;;22.57;37.37;100017.06;20792653;27;98103;-76
2022/06/22 04:33:58;;;;;;;2.50;1.40;;;;;;;22.64;37.11;100012.06;20793845;27;101466;-76
2022/06/22 04:44:03;;;;;;;1.90;1.40;;;;;;;22.56;37.12;100033.88;20800571;27;99943;-76
2022/06/22 04:54:18;;;;;;;4.85;1.38;;;;;;;22.68;37.19;100038.06;20809931;27;97718;-75
2022/06/22 05:04:29;;;;;;;2.45;1.20;;;;;;;23.17;36.99;100042.53;20807555;27;101172;-76
2022/06/22 05:14:32;;;;;;;3.35;1.10;;;;;;;23.44;37.65;100062.13;20806241;27;97256;-79
2022/06/22 05:24:36;;;;;;;1.70;1.10;;;;;;;23.61;37.64;100079.88;20829605;27;97641;-82
2022/06/22 05:34:41;;;;;;;6.18;1.40;;;;;;;23.78;37.22;100074.84;20803721;27;97647;-82
2022/06/22 05:44:42;;;;;;;3.42;1.40;;;;;;;23.89;37.21;100072.00;20830087;27;100656;-84
2022/06/22 05:54:54;;;;;;;2.33;1.00;;;;;;;24.02;36.61;100084.94;20800777;27;100382;-79
2022/06/22 06:04:59;;;;;;;;;;;;;;;24.13;36.96;100079.47;20821604;27;98011;-79
2022/06/22 06:15:02;;;;;;;4.75;1.27;;;;;;;24.22;36.40;100079.59;20823589;27;98019;-76
2022/06/22 06:35:45;;;;;;;2.28;1.05;;;;;;;24.39;37.35;100097.31;20805250;27;99937;-79
2022/06/22 06:45:48;;;;;;;6.72;1.20;;;;;;;24.47;37.31;100096.56;20811236;27;98400;-81
2022/06/22 06:55:54;;;;;;;6.13;1.30;;;;;;;24.54;37.87;100092.34;20823035;27;101205;-81
2022/06/22 07:05:55;;;;;;;2.78;1.30;;;;;;;24.40;34.94;100076.97;20825861;27;97734;-80
2022/06/22 07:16:00;;;;;;;4.68;1.27;;;;;;;24.29;33.51;100070.06;20810217;27;98302;-77
2022/06/22 07:26:10;;;;;;;1.45;1.15;;;;;;;24.27;34.09;100077.31;20822444;27;101326;-77
2022/06/22 07:36:45;;;;;;;3.20;1.63;;;;;;;24.25;33.97;100058.94;20821420;27;98141;-75
2022/06/22 07:47:10;;;;;;;3.75;1.30;;;;;;;24.24;33.84;100051.16;20803771;27;100087;-76
2022/06/22 07:57:40;;;;;;;5.20;1.67;;;;;;;24.30;33.89;100050.56;20769230;27;97927;-76
2022/06/22 08:07:52;;;;;;;4.35;1.60;;;;;;;24.40;34.67;100047.84;20789085;27;100326;-76
2022/06/22 08:17:58;;;;;;;2.53;1.38;;;;;;;24.45;33.71;100038.50;20820886;27;97912;-75
2022/06/22 08:28:01;;;;;;;7.22;1.30;;;;;;;24.41;30.78;100041.59;20819881;27;97817;-75
2022/06/22 08:38:10;;;;;;;2.83;1.15;;;;;;;24.37;30.01;100035.75;20812718;27;97157;-75
2022/06/22 08:48:38;;;;;;;0.73;0.65;;;;;;;24.43;27.93;100031.69;20800561;27;100886;-75
2022/06/22 08:58:53;;;;;;;0.88;0.80;;;;;;;24.45;29.06;100030.56;20817709;27;98485;-75
2022/06/22 09:09:27;;;;;;;2.28;0.90;;;;;;;24.52;28.81;100037.91;20806429;27;97207;-75
2022/06/22 09:19:47;;;;;;;4.93;1.00;;;;;;;24.53;28.97;100028.97;20822523;27;97509;-75
2022/06/22 09:30:12;;;;;;;1.23;0.73;;;;;;;24.51;28.01;100025.66;20818452;27;97599;-76
2022/06/22 09:40:25;;;;;;;4.53;0.85;;;;;;;24.51;27.10;100023.00;20809551;27;98208;-75
2022/06/22 09:50:45;;;;;;;1.95;0.85;;;;;;;24.54;27.53;100015.59;20818181;27;97745;-75
2022/06/22 10:00:56;;;;;;;1.33;0.70;;;;;;;24.58;27.02;100006.38;20811566;27;98547;-75
2022/06/22 10:11:35;;;;;;;2.57;1.23;;;;;;;24.62;27.11;99994.50;20809227;27;100475;-75
2022/06/22 10:22:07;;;;;;;1.35;0.73;;;;;;;24.68;27.62;99993.09;20809749;27;97711;-75
2022/06/22 10:32:18;;;;;;;1.20;0.80;;;;;;;24.75;28.05;99999.44;20805939;27;97958;-75
2022/06/22 10:53:03;;;;;;;2.72;0.80;;;;;;;24.88;28.17;100001.72;20824915;27;99088;-75
2022/06/22 11:03:08;;;;;;;0.80;0.52;;;;;;;24.95;28.49;100009.88;20836015;27;97021;-75
2022/06/22 11:13:20;;;;;;;2.67;0.82;;;;;;;25.02;28.50;100000.31;20832246;27;97422;-75
2022/06/22 11:23:50;;;;;;;1.05;0.70;;;;;;;25.10;28.66;99994.28;20804845;27;98789;-74
2022/06/22 11:34:22;;;;;;;1.00;0.77;;;;;;;25.20;28.58;99994.19;20811715;27;99743;-75
2022/06/22 11:45:49;;;;;;;2.10;0.80;;;;;;;25.27;28.84;99968.72;20812988;27;98575;-75
2022/06/22 11:55:10;;;;;;;1.17;0.55;;;;;;;25.34;27.95;99959.16;20812400;27;96968;-75
2022/06/22 12:05:18;;;;;;;0.77;0.60;;;;;;;25.42;27.44;99958.41;20823353;27;97826;-75
2022/06/22 12:15:28;;;;;;;1.20;0.80;;;;;;;25.48;27.70;99952.47;20825954;27;100166;-75
2022/06/22 12:25:37;;;;;;;2.15;0.60;;;;;;;25.57;27.51;99948.03;20828339;27;96987;-76
2022/06/22 12:36:01;;;;;;;1.27;0.80;;;;;;;25.63;27.76;99939.44;20824081;27;100007;-76
2022/06/22 12:46:18;;;;;;;0.60;0.60;;;;;;;25.71;27.94;99925.41;20825695;27;97019;-75
2022/06/22 12:56:28;;;;;;;0.60;0.60;;;;;;;25.79;27.79;99920.09;20827575;27;101172;-75
2022/06/22 13:06:31;;;;;;;0.80;0.70;;;;;;;25.85;27.62;99919.47;20827871;27;97119;-75
2022/06/22 13:16:38;;;;;;;3.45;0.77;;;;;;;25.92;27.42;99905.56;20827110;27;101760;-74
2022/06/22 13:26:41;;;;;;;1.27;0.63;;;;;;;25.99;27.08;99891.50;20824925;27;98597;-75
2022/06/22 13:37:09;;;;;;;0.82;0.70;;;;;;;26.05;27.31;99871.44;20821707;27;100387;-75
2022/06/22 13:47:27;;;;;;;0.70;0.70;;;;;;;26.12;27.48;99887.56;20819893;27;97958;-75
2022/06/22 13:57:42;;;;;;;1.77;0.75;;;;;;;26.19;27.73;99872.66;20833553;27;99216;-75
2022/06/22 14:08:24;;;;;;;1.15;0.80;;;;;;;26.24;27.93;99870.31;20830350;27;101213;-74
2022/06/22 14:18:35;;;;;;;1.13;0.75;;;;;;;26.30;28.08;99860.88;20792065;27;97059;-74
2022/06/22 14:28:38;;;;;;;;;;;;;;;26.35;28.21;99856.75;20812584;27;98545;-75
2022/06/22 14:38:51;;;;;;;2.65;0.73;;;;;;;26.42;27.19;99854.22;20826813;27;99734;-76
2022/06/22 14:49:00;;;;;;;2.20;1.02;;;;;;;26.43;27.36;99845.28;20827028;27;98732;-75
2022/06/22 14:59:18;;;;;;;1.35;0.98;;;;;;;26.46;27.38;99838.81;20828861;27;99349;-76
2022/06/22 15:09:30;;;;;;;2.25;1.00;;;;;;;26.47;27.75;99822.69;20837303;27;100336;-76
2022/06/22 15:19:45;;;;;;;1.08;0.98;;;;;;;26.49;27.83;99801.31;20822899;27;100678;-76
2022/06/22 15:30:00;;;;;;;1.35;1.15;;;;;;;26.49;27.56;99802.13;20817711;27;98254;-76
2022/06/22 15:40:34;;;;;;;1.58;0.98;;;;;;;26.53;27.68;99790.16;20836508;27;97933;-76
2022/06/22 15:50:44;;;;;;;2.13;1.08;;;;;;;26.59;28.37;99782.53;20804428;27;98058;-78
2022/06/22 16:01:17;;;;;;;1.80;1.00;;;;;;;26.60;27.47;99787.69;20836907;27;100076;-78
2022/06/22 16:22:13;;;;;;;1.63;1.02;;;;;;;26.57;28.79;99765.94;20815084;27;97686;-78
2022/06/22 16:32:24;;;;;;;2.45;1.20;;;;;;;26.59;29.51;99764.78;20807724;27;97292;-79
2022/06/22 16:42:52;;;;;;;4.87;1.17;;;;;;;26.56;28.48;99746.50;20826586;27;100348;-77
2022/06/22 16:52:56;;;;;;;1.30;1.20;;;;;;;26.51;28.91;99739.09;20839834;27;97184;-79
2022/06/22 17:03:06;;;;;;;2.28;1.98;;;;;;;26.44;28.73;99747.88;20846335;27;97071;-78
2022/06/22 17:13:15;;;;;;;5.47;1.87;;;;;;;26.43;29.21;99747.06;20839486;27;97117;-77
2022/06/22 17:23:27;;;;;;;10.27;1.85;;;;;;;26.44;29.91;99763.81;20832267;27;97763;-80
2022/06/22 17:33:33;;;;;;;14.25;4.40;;;;;;;26.47;29.03;99753.69;20826638;27;99485;-78
2022/06/22 17:43:55;;;;;;;11.25;4.43;;;;;;;26.50;28.10;99757.81;20817474;27;97317;-77
2022/06/22 17:54:09;;;;;;;5.32;2.30;;;;;;;26.54;27.66;99764.47;20824322;27;100792;-78
2022/06/22 18:04:17;;;;;;;6.40;3.17;;;;;;;26.56;27.85;99774.91;20792526;27;98924;-76
2022/06/22 18:14:28;;;;;;;44.78;26.92;;;;;;;26.52;27.32;99793.00;20812743;27;97722;-74
2022/06/22 18:24:35;;;;;;;5.80;1.80;;;;;;;26.49;28.25;99799.47;20815457;27;97491;-79
2022/06/22 18:34:52;;;;;;;6.57;1.83;;;;;;;26.44;27.89;99782.38;20802909;27;99995;-77
2022/06/22 18:44:56;;;;;;;7.85;4.45;;;;;;;26.36;28.70;99793.84;20815039;27;102208;-77
2022/06/22 18:55:00;;;;;;;5.95;3.90;;;;;;;26.29;28.58;99791.06;20783794;27;98542;-77
2022/06/22 19:05:14;;;;;;;4.18;2.20;;;;;;;26.26;28.83;99801.19;20827946;27;99485;-77
2022/06/22 19:15:40;;;;;;;3.53;1.90;;;;;;;26.17;29.12;99805.63;20816182;27;99580;-78
2022/06/22 19:26:00;;;;;;;5.28;2.38;;;;;;;26.16;29.74;99806.66;20822463;27;97046;-78
2022/06/22 19:36:12;;;;;;;3.70;1.60;;;;;;;26.11;29.71;99816.91;20814469;27;98098;-79
2022/06/22 19:46:29;;;;;;;3.08;2.08;;;;;;;26.09;30.04;99827.69;20803815;27;101238;-78
2022/06/22 19:56:39;;;;;;;5.43;2.55;;;;;;;26.05;30.14;99829.00;20787966;27;97136;-80
2022/06/22 20:06:48;;;;;;;3.15;1.70;;;;;;;26.00;29.72;99825.97;20781652;27;99146;-78
2022/06/22 20:17:03;;;;;;;2.13;1.75;;;;;;;25.93;30.28;99832.94;20727484;27;97174;-76
2022/06/22 20:27:37;;;;;;;7.68;3.83;;;;;;;25.86;31.01;99822.16;20750702;27;97068;-78
2022/06/22 20:37:41;;;;;;;3.30;2.50;;;;;;;25.77;30.91;99831.09;20754524;27;98485;-81
2022/06/22 20:47:52;;;;;;;7.30;3.47;;;;;;;25.69;31.49;99814.16;20782080;27;98437;-78
2022/06/22 20:58:21;;;;;;;5.07;1.70;;;;;;;25.60;31.77;99819.63;20794891;27;97733;-80
2022/06/22 21:08:25;;;;;;;4.35;2.20;;;;;;;25.53;31.59;99817.63;20766031;27;97122;-83
2022/06/22 21:18:30;;;;;;;3.90;1.85;;;;;;;25.49;31.98;99816.28;20878047;27;97083;-80
2022/06/22 21:39:04;;;;;;;1.92;1.50;;;;;;;25.32;31.93;99823.31;20846749;27;97710;-83
2022/06/22 21:49:24;;;;;;;3.05;2.20;;;;;;;25.26;32.63;99819.47;20838292;27;97784;-80
2022/06/22 21:59:44;;;;;;;3.22;1.73;;;;;;;25.18;32.55;99803.56;20828166;27;100968;-81
2022/06/22 22:10:08;;;;;;;3.65;1.95;;;;;;;25.33;32.86;99795.00;20819607;27;98142;-81
2022/06/22 22:20:55;;;;;;;2.40;1.50;;;;;;;25.34;32.61;99791.34;20753179;27;97761;-81
2022/06/22 22:30:58;;;;;;;4.40;1.98;;;;;;;25.35;33.16;99790.38;20693657;27;101164;-81
2022/06/22 22:41:01;;;;;;;3.45;1.80;;;;;;;25.28;35.20;99810.53;20722009;27;97861;-81
2022/06/22 22:51:02;;;;;;;2.88;1.67;;;;;;;25.22;36.27;99819.97;20750084;27;100740;-81
2022/06/22 23:01:20;;;;;;;4.93;1.90;;;;;;;25.14;37.03;99817.28;20744929;27;97281;-80
2022/06/22 23:11:36;;;;;;;3.20;1.63;;;;;;;25.09;36.76;99805.34;20766283;27;97192;-80
2022/06/22 23:21:42;;;;;;;4.30;1.92;;;;;;;25.07;37.21;99815.28;20788801;27;97461;-80
2022/06/22 23:31:58;;;;;;;3.28;1.80;;;;;;;25.02;37.42;99814.09;20826223;27;97364;-80
2022/06/22 23:42:06;;;;;;;2.72;1.80;;;;;;;25.01;37.59;99823.00;20834057;27;100965;-80
2022/06/22 23:52:21;;;;;;;3.97;1.90;;;;;;;25.16;37.15;99858.53;20822622;27;98499;-80
